MMMA/MAM METAR and TAF weather

Enter ICAO airport designator
Station Type Date Time Source
MMMA METAR 2021/07/24 18:40 UTC NOAA

MMMA 241840Z 18016KT 7SM FEW020 34/26 A3004 RMK 8/100 HZY


Station Type Date Time Source
MMMA Decoded METAR 2021/07/24 18:40 UTC NOAA

Matamoros International , Mexico (MMMA) 25-46N 097-32W
Jul 24, 2021 - 02:40 PM EDT / 2021.07.24 1840 UTC
Wind: from the S (180 degrees) at 18 MPH (16 KT):0
Visibility: 7 mile(s):0
Sky conditions: mostly clear
Temperature: 93 F (34 C)
Heat index: 109.6 F (43.1 C):1
Dew Point: 78 F (26 C)
Relative Humidity: 63%
Pressure (altimeter): 30.04 in. Hg (1017 hPa)
ob: MMMA 241840Z 18016KT 7SM FEW020 34/26 A3004 RMK 8/100 HZY
cycle: 18

Station Type Date Time Source
MMMA TAF 2021/07/24 18:58 UTC NOAA

TAF MMMA 241658Z 2418/2518 16015KT 6SM HZ BKN020
BECMG 2420/2421 16015G25KT
FM250200 16015KT P6SM SKC
FM251000 16010KT 6SM HZ BKN015
TEMPO 2511/2515 3SM BR HZ OVC010
FM251600 16010KT 6SM HZ BKN020

Example: see airport list